Time;durP1;ratioP1;P1;durP2;ratioP2;P2;SDS_P1;SDS_P2;PMS_P1;PMS_P2;Temp;Humidity;BMP_temperature;BMP_pressure;BME280_temperature;BME280_humidity;BME280_pressure;Samples;Min_cycle;Max_cycle;Signal;HPM_P1;HPM_P2
2023/07/12 00:00:23;;;;;;;;;;;22.00;87.60;;;;;;6220590;23;19900;-85
2023/07/12 00:02:49;;;;;;;;;;;22.00;87.80;;;;;;6193041;23;19942;-85
2023/07/12 00:05:15;;;;;;;;;;;22.00;87.70;;;;;;6193481;23;19900;-85
2023/07/12 00:07:41;;;;;;;;;;;22.10;87.80;;;;;;6221573;23;19900;-85
2023/07/12 00:10:17;;;;;;;;;;;22.00;87.80;;;;;;6194636;23;19919;-86
2023/07/12 00:12:43;;;;;;;;;;;22.00;87.90;;;;;;6194151;23;20335;-84
2023/07/12 00:15:14;;;;;;;;;;;22.00;88.00;;;;;;6221099;23;19906;-86
2023/07/12 00:17:40;;;;;;;;;;;21.90;88.10;;;;;;6221717;23;19904;-85
2023/07/12 00:20:13;;;;;;;;;;;21.90;88.10;;;;;;6194320;23;19907;-85
2023/07/12 00:22:39;;;;;;;;;;;21.90;88.20;;;;;;6221046;23;19900;-85
2023/07/12 00:25:04;;;;;;;;;;;21.90;88.20;;;;;;6204125;23;19907;-86
2023/07/12 00:27:30;;;;;;;;;;;21.90;88.30;;;;;;6205972;23;19900;-85
2023/07/12 00:29:55;;;;;;;;;;;21.90;88.40;;;;;;6205450;23;19910;-86
2023/07/12 00:32:21;;;;;;;;;;;21.90;88.40;;;;;;6230441;23;19904;-86
2023/07/12 00:34:46;;;;;;;;;;;21.90;88.40;;;;;;6203908;23;20278;-85
2023/07/12 00:37:13;;;;;;;;;;;21.90;88.40;;;;;;6203616;23;19904;-87
2023/07/12 00:39:39;;;;;;;;;;;21.90;88.40;;;;;;6228952;23;20314;-88
2023/07/12 00:42:23;;;;;;;;;;;21.90;88.40;;;;;;6201123;23;19923;-85
2023/07/12 00:44:50;;;;;;;;;;;21.90;88.50;;;;;;6203256;23;19900;-85
2023/07/12 00:47:16;;;;;;;;;;;21.90;88.50;;;;;;6202881;23;19899;-87
2023/07/12 00:49:44;;;;;;;;;;;21.90;88.50;;;;;;6229829;23;19899;-85
2023/07/12 00:52:17;;;;;;;;;;;21.90;88.50;;;;;;6202113;23;20238;-87
2023/07/12 00:54:51;;;;;;;;;;;21.90;88.50;;;;;;6228945;23;19922;-85
2023/07/12 00:57:16;;;;;;;;;;;21.90;88.60;;;;;;6201155;23;19899;-87
2023/07/12 00:59:42;;;;;;;;;;;21.90;88.60;;;;;;6200123;23;19910;-85
2023/07/12 01:02:08;;;;;;;;;;;21.90;89.20;;;;;;6200123;23;19899;-85
2023/07/12 01:04:40;;;;;;;;;;;21.90;88.50;;;;;;6200988;23;20376;-86
2023/07/12 01:07:06;;;;;;;;;;;21.90;88.40;;;;;;6226931;23;19907;-85
2023/07/12 01:09:32;;;;;;;;;;;21.90;88.40;;;;;;6226212;23;19900;-85
2023/07/12 01:11:58;;;;;;;;;;;21.90;88.40;;;;;;6198457;23;19900;-86
2023/07/12 01:14:24;;;;;;;;;;;21.90;88.20;;;;;;6225201;23;19899;-86
2023/07/12 01:16:59;;;;;;;;;;;21.90;88.30;;;;;;6224003;23;20298;-86
2023/07/12 01:19:25;;;;;;;;;;;22.00;88.20;;;;;;6196604;23;19904;-85
2023/07/12 01:21:51;;;;;;;;;;;22.00;88.20;;;;;;6224685;23;19946;-86
2023/07/12 01:24:17;;;;;;;;;;;22.00;88.20;;;;;;6198462;23;19903;-85
2023/07/12 01:26:44;;;;;;;;;;;22.10;88.30;;;;;;6224279;23;19904;-85
2023/07/12 01:29:10;;;;;;;;;;;22.10;88.20;;;;;;6223724;23;19900;-86
2023/07/12 01:31:36;;;;;;;;;;;22.00;88.20;;;;;;6195875;23;20322;-85
2023/07/12 01:34:02;;;;;;;;;;;22.00;88.30;;;;;;6195537;23;19923;-85
2023/07/12 01:36:28;;;;;;;;;;;22.00;88.20;;;;;;6224811;23;19907;-86
2023/07/12 01:38:55;;;;;;;;;;;22.00;88.20;;;;;;6195082;23;19904;-85
2023/07/12 01:41:20;;;;;;;;;;;22.00;88.30;;;;;;6194589;23;19910;-86
2023/07/12 01:43:46;;;;;;;;;;;21.90;88.30;;;;;;6221427;23;19928;-86
2023/07/12 01:46:12;;;;;;;;;;;21.90;88.40;;;;;;6194977;23;20233;-85
2023/07/12 01:48:38;;;;;;;;;;;21.90;88.50;;;;;;6222106;23;19960;-85
2023/07/12 01:51:03;;;;;;;;;;;21.90;88.60;;;;;;6193234;23;20570;-85
2023/07/12 01:53:29;;;;;;;;;;;21.90;88.60;;;;;;6193099;23;19900;-87
2023/07/12 01:55:55;;;;;;;;;;;21.90;88.70;;;;;;6218963;23;19900;-86
2023/07/12 01:58:21;;;;;;;;;;;21.90;88.70;;;;;;6193003;23;19914;-84
2023/07/12 02:00:48;;;;;;;;;;;21.90;88.70;;;;;;6193240;23;19899;-85
2023/07/12 02:03:15;;;;;;;;;;;21.90;88.70;;;;;;6191963;23;19900;-85
2023/07/12 02:05:41;;;;;;;;;;;21.90;88.80;;;;;;6219898;23;19907;-84
2023/07/12 02:08:06;;;;;;;;;;;21.90;88.80;;;;;;6192469;23;19900;-85
2023/07/12 02:10:32;;;;;;;;;;;21.90;88.80;;;;;;6192265;23;19979;-85
2023/07/12 02:12:57;;;;;;;;;;;21.90;89.40;;;;;;6192297;23;20305;-84
2023/07/12 02:15:22;;;;;;;;;;;21.90;88.80;;;;;;6192637;23;19978;-85
2023/07/12 02:17:48;;;;;;;;;;;21.90;88.90;;;;;;6191829;23;19935;-86
2023/07/12 02:20:13;;;;;;;;;;;21.90;88.90;;;;;;6192154;23;19900;-84
2023/07/12 02:22:43;;;;;;;;;;;21.90;88.90;;;;;;6217604;23;19907;-85
2023/07/12 02:25:10;;;;;;;;;;;21.90;88.90;;;;;;6191797;23;19899;-86
2023/07/12 02:27:35;;;;;;;;;;;21.90;88.90;;;;;;6218664;23;19931;-85
2023/07/12 02:30:00;;;;;;;;;;;21.90;88.90;;;;;;6191567;23;19900;-85
2023/07/12 02:32:27;;;;;;;;;;;21.90;88.90;;;;;;6190614;23;20386;-85
2023/07/12 02:34:52;;;;;;;;;;;21.90;89.00;;;;;;6191042;23;19908;-85
2023/07/12 02:37:18;;;;;;;;;;;21.90;88.90;;;;;;6190885;23;19900;-85
2023/07/12 02:39:44;;;;;;;;;;;21.90;88.80;;;;;;6191526;23;19906;-85
2023/07/12 02:42:10;;;;;;;;;;;21.90;88.80;;;;;;6217523;23;19950;-85
2023/07/12 02:44:37;;;;;;;;;;;21.90;88.70;;;;;;6190918;23;20264;-85
2023/07/12 02:47:02;;;;;;;;;;;21.90;88.60;;;;;;6217747;23;19911;-85
2023/07/12 02:49:28;;;;;;;;;;;22.00;88.60;;;;;;6217655;23;19903;-85
2023/07/12 02:51:53;;;;;;;;;;;22.00;88.50;;;;;;6190488;23;19900;-85
2023/07/12 02:54:19;;;;;;;;;;;22.00;88.50;;;;;;6192964;23;19910;-87
2023/07/12 02:56:44;;;;;;;;;;;22.00;88.30;;;;;;6212507;23;19900;-89
2023/07/12 02:59:10;;;;;;;;;;;22.00;88.40;;;;;;6235350;23;19904;-86
2023/07/12 03:01:35;;;;;;;;;;;22.00;88.40;;;;;;6211228;23;19899;-86
2023/07/12 03:04:01;;;;;;;;;;;22.00;88.40;;;;;;6210030;23;19947;-87
2023/07/12 03:06:27;;;;;;;;;;;22.00;88.40;;;;;;6208483;23;20349;-88
2023/07/12 03:08:52;;;;;;;;;;;22.00;88.40;;;;;;6208377;23;19931;-86
2023/07/12 03:11:17;;;;;;;;;;;22.00;88.40;;;;;;6206194;23;19907;-87
2023/07/12 03:13:43;;;;;;;;;;;21.90;88.40;;;;;;6206036;23;19900;-88
2023/07/12 03:16:09;;;;;;;;;;;21.90;88.60;;;;;;6210315;23;19900;-88
2023/07/12 03:18:34;;;;;;;;;;;21.90;88.70;;;;;;6211152;23;19982;-87
2023/07/12 03:21:00;;;;;;;;;;;21.90;88.70;;;;;;6236367;23;19900;-87
2023/07/12 03:23:26;;;;;;;;;;;21.90;88.80;;;;;;6234837;23;19923;-86
2023/07/12 03:25:51;;;;;;;;;;;21.90;88.80;;;;;;6234944;23;19900;-90
2023/07/12 03:28:17;;;;;;;;;;;21.90;88.90;;;;;;6207361;23;19907;-86
2023/07/12 03:30:42;;;;;;;;;;;21.90;89.00;;;;;;6207085;23;19990;-87
2023/07/12 03:33:08;;;;;;;;;;;21.80;88.90;;;;;;6232589;23;19908;-86
2023/07/12 03:35:34;;;;;;;;;;;21.90;89.00;;;;;;6206085;23;19899;-86
2023/07/12 03:37:59;;;;;;;;;;;21.80;89.00;;;;;;6232168;23;19908;-85
2023/07/12 03:40:25;;;;;;;;;;;21.90;89.00;;;;;;6204862;23;19899;-87
2023/07/12 03:42:50;;;;;;;;;;;21.90;89.00;;;;;;6230481;23;19947;-86
2023/07/12 03:45:15;;;;;;;;;;;21.90;89.00;;;;;;6230474;23;19911;-86
2023/07/12 03:47:41;;;;;;;;;;;21.90;89.00;;;;;;6203046;23;19900;-88
2023/07/12 03:50:06;;;;;;;;;;;21.90;89.00;;;;;;6201889;23;20334;-85
2023/07/12 03:52:32;;;;;;;;;;;21.80;89.00;;;;;;6201043;23;19958;-86
2023/07/12 03:54:57;;;;;;;;;;;21.80;89.00;;;;;;6228839;23;19900;-85
2023/07/12 03:57:23;;;;;;;;;;;21.80;89.00;;;;;;6228462;23;19907;-85
2023/07/12 03:59:49;;;;;;;;;;;21.80;89.00;;;;;;6199685;23;19954;-86
2023/07/12 04:02:15;;;;;;;;;;;21.80;89.00;;;;;;6226267;23;19900;-85
2023/07/12 04:04:40;;;;;;;;;;;21.90;89.20;;;;;;6226361;23;19900;-85
2023/07/12 04:07:06;;;;;;;;;;;21.80;89.10;;;;;;6225654;23;19903;-83
2023/07/12 04:09:31;;;;;;;;;;;21.90;89.20;;;;;;6213629;23;19907;-84
2023/07/12 04:11:56;;;;;;;;;;;21.90;89.60;;;;;;6184056;23;19927;-82
2023/07/12 04:14:23;;;;;;;;;;;21.90;89.00;;;;;;6186815;23;19904;-82
2023/07/12 04:16:48;;;;;;;;;;;21.90;89.00;;;;;;6188036;23;19904;-82
2023/07/12 04:19:14;;;;;;;;;;;21.90;89.00;;;;;;6214579;23;20346;-83
2023/07/12 04:21:39;;;;;;;;;;;22.00;88.90;;;;;;6216520;23;19943;-83
2023/07/12 04:24:05;;;;;;;;;;;22.00;88.90;;;;;;6189214;23;19956;-82
2023/07/12 04:26:30;;;;;;;;;;;22.00;88.90;;;;;;6188362;23;19911;-82
2023/07/12 04:28:56;;;;;;;;;;;22.00;88.70;;;;;;6189760;23;19946;-83
2023/07/12 04:31:21;;;;;;;;;;;22.00;88.70;;;;;;6189371;23;19998;-83
2023/07/12 04:33:48;;;;;;;;;;;22.00;88.70;;;;;;6188374;23;19915;-83
2023/07/12 04:36:14;;;;;;;;;;;22.00;88.80;;;;;;6188841;23;20326;-81
2023/07/12 04:38:39;;;;;;;;;;;22.20;88.90;;;;;;6188263;23;19912;-83
2023/07/12 04:41:05;;;;;;;;;;;21.90;88.80;;;;;;6191203;23;20388;-78
2023/07/12 04:43:31;;;;;;;;;;;21.90;88.60;;;;;;6193947;23;19899;-78
2023/07/12 04:45:57;;;;;;;;;;;21.90;88.70;;;;;;6195248;23;19954;-77
2023/07/12 04:48:22;;;;;;;;;;;21.80;88.70;;;;;;6195313;23;20152;-78
2023/07/12 04:50:55;;;;;;;;;;;21.80;88.80;;;;;;6196324;23;19935;-77
2023/07/12 04:53:21;;;;;;;;;;;21.90;88.90;;;;;;6193559;23;19900;-78
2023/07/12 04:55:47;;;;;;;;;;;21.90;89.10;;;;;;6220920;23;19910;-79
2023/07/12 04:58:12;;;;;;;;;;;21.90;89.00;;;;;;6219353;23;20093;-79
2023/07/12 05:00:38;;;;;;;;;;;21.90;89.50;;;;;;6193981;23;19954;-80
2023/07/12 05:03:03;;;;;;;;;;;21.90;89.00;;;;;;6220181;23;19907;-81
2023/07/12 05:05:28;;;;;;;;;;;21.90;89.00;;;;;;6187843;23;19900;-81
2023/07/12 05:07:54;;;;;;;;;;;21.90;89.00;;;;;;6214480;23;19958;-80
2023/07/12 05:10:19;;;;;;;;;;;21.80;88.90;;;;;;6214796;23;19907;-84
2023/07/12 05:12:45;;;;;;;;;;;21.90;89.00;;;;;;6212772;23;19904;-81
2023/07/12 05:15:11;;;;;;;;;;;21.80;88.90;;;;;;6215004;23;19946;-83
2023/07/12 05:17:37;;;;;;;;;;;21.90;89.00;;;;;;6189627;23;19911;-83
2023/07/12 05:20:04;;;;;;;;;;;21.90;88.90;;;;;;6216429;23;19914;-81
2023/07/12 05:22:30;;;;;;;;;;;21.90;88.90;;;;;;6215084;23;19981;-83
2023/07/12 05:24:56;;;;;;;;;;;21.90;88.90;;;;;;6215627;23;19907;-82
2023/07/12 05:27:22;;;;;;;;;;;21.90;88.90;;;;;;6214659;23;19910;-82
2023/07/12 05:29:47;;;;;;;;;;;21.90;88.80;;;;;;6186988;23;19904;-83
2023/07/12 05:32:13;;;;;;;;;;;21.90;88.90;;;;;;6184339;22;19900;-82
2023/07/12 05:34:39;;;;;;;;;;;22.10;88.90;;;;;;6184289;23;19915;-83
2023/07/12 05:37:52;;;;;;;;;;;;;;;;;;;;;
2023/07/12 05:40:28;;;;;;;;;;;20.60;88.30;;;;;;6066439;23;20289;-83
2023/07/12 05:42:54;;;;;;;;;;;21.90;88.90;;;;;;6179694;23;19919;-83
2023/07/12 05:45:19;;;;;;;;;;;22.00;88.60;;;;;;6186948;23;19904;-82
2023/07/12 05:47:47;;;;;;;;;;;22.20;88.60;;;;;;6184782;23;19927;-83
2023/07/12 05:50:14;;;;;;;;;;;22.50;88.90;;;;;;6180988;23;19911;-84
2023/07/12 05:52:39;;;;;;;;;;;23.40;89.40;;;;;;6182544;23;20010;-81
2023/07/12 05:55:06;;;;;;;;;;;22.10;89.00;;;;;;6182232;23;19900;-81
2023/07/12 05:57:34;;;;;;;;;;;22.00;88.30;;;;;;6187517;23;19923;-81
2023/07/12 06:00:00;;;;;;;;;;;22.00;88.10;;;;;;6192000;23;19907;-83
2023/07/12 06:02:26;;;;;;;;;;;22.00;88.20;;;;;;6191345;23;19915;-83
2023/07/12 06:04:51;;;;;;;;;;;22.00;88.20;;;;;;6190723;23;20319;-83
2023/07/12 06:07:16;;;;;;;;;;;22.00;88.20;;;;;;6192987;23;19907;-83
2023/07/12 06:09:42;;;;;;;;;;;22.00;88.20;;;;;;6191985;23;19900;-82
2023/07/12 06:12:08;;;;;;;;;;;22.00;88.10;;;;;;6189466;23;19911;-82
2023/07/12 06:14:33;;;;;;;;;;;22.00;87.90;;;;;;6191962;23;19948;-82
2023/07/12 06:16:59;;;;;;;;;;;22.10;87.90;;;;;;6189798;23;19979;-82
2023/07/12 06:19:24;;;;;;;;;;;22.10;87.80;;;;;;6192099;23;19911;-83
2023/07/12 06:21:50;;;;;;;;;;;22.10;87.70;;;;;;6191216;23;19943;-82
2023/07/12 06:24:15;;;;;;;;;;;22.10;87.70;;;;;;6191671;23;19907;-83
2023/07/12 06:26:41;;;;;;;;;;;22.10;87.60;;;;;;6192732;23;19904;-83
2023/07/12 06:29:06;;;;;;;;;;;22.10;87.60;;;;;;6192391;23;19900;-83
2023/07/12 06:31:31;;;;;;;;;;;22.10;87.70;;;;;;6190803;23;19951;-82
2023/07/12 06:34:00;;;;;;;;;;;22.10;87.80;;;;;;6214505;23;19918;-83
2023/07/12 06:36:26;;;;;;;;;;;22.00;87.80;;;;;;6222576;23;19931;-82
2023/07/12 06:38:51;;;;;;;;;;;22.00;87.90;;;;;;6194580;23;19958;-82
2023/07/12 06:41:17;;;;;;;;;;;22.00;88.10;;;;;;6194051;23;20234;-83
2023/07/12 06:43:43;;;;;;;;;;;22.00;88.10;;;;;;6221007;23;19942;-82
2023/07/12 06:46:08;;;;;;;;;;;22.00;88.20;;;;;;6194179;23;19974;-83
2023/07/12 06:48:34;;;;;;;;;;;22.00;88.20;;;;;;6193758;23;20381;-82
2023/07/12 06:50:59;;;;;;;;;;;22.00;88.20;;;;;;6193978;23;20255;-82
2023/07/12 06:53:26;;;;;;;;;;;21.90;88.20;;;;;;6220242;23;19950;-82
2023/07/12 06:55:52;;;;;;;;;;;22.00;88.20;;;;;;6193748;23;19982;-82
2023/07/12 06:58:17;;;;;;;;;;;22.00;88.30;;;;;;6219734;23;19904;-82
2023/07/12 07:00:43;;;;;;;;;;;21.90;88.20;;;;;;6220294;23;19907;-82
2023/07/12 07:03:09;;;;;;;;;;;21.90;88.20;;;;;;6192191;23;19950;-82
2023/07/12 07:05:36;;;;;;;;;;;21.90;88.30;;;;;;6219160;23;19954;-82
2023/07/12 07:08:01;;;;;;;;;;;21.90;88.30;;;;;;6218954;23;20323;-82
2023/07/12 07:10:27;;;;;;;;;;;22.00;88.40;;;;;;6192452;23;19906;-82
2023/07/12 07:12:52;;;;;;;;;;;21.90;88.40;;;;;;6191045;23;20514;-82
2023/07/12 07:15:18;;;;;;;;;;;22.00;88.40;;;;;;6192105;23;19900;-83
2023/07/12 07:17:44;;;;;;;;;;;22.00;88.40;;;;;;6191790;23;19911;-82
2023/07/12 07:20:09;;;;;;;;;;;21.90;88.40;;;;;;6192060;23;19900;-82
2023/07/12 07:22:35;;;;;;;;;;;22.00;89.00;;;;;;6191685;23;20245;-82
2023/07/12 07:25:00;;;;;;;;;;;21.90;88.40;;;;;;6218002;23;19899;-82
2023/07/12 07:27:25;;;;;;;;;;;21.90;88.40;;;;;;6191648;23;19950;-82
2023/07/12 07:29:51;;;;;;;;;;;22.00;88.50;;;;;;6218474;23;20472;-82
2023/07/12 07:32:17;;;;;;;;;;;22.00;88.40;;;;;;6191029;23;19907;-82
2023/07/12 07:34:42;;;;;;;;;;;21.90;88.50;;;;;;6191048;23;20339;-82
2023/07/12 07:37:08;;;;;;;;;;;21.90;88.40;;;;;;6191090;23;20335;-82
2023/07/12 07:39:33;;;;;;;;;;;21.90;88.30;;;;;;6190649;23;19958;-82
2023/07/12 07:42:00;;;;;;;;;;;22.00;88.30;;;;;;6190687;23;19899;-82
2023/07/12 07:44:25;;;;;;;;;;;22.00;88.20;;;;;;6190640;23;19923;-82
2023/07/12 07:46:51;;;;;;;;;;;22.10;88.10;;;;;;6190632;23;19904;-82
2023/07/12 07:49:16;;;;;;;;;;;22.00;87.90;;;;;;6190315;23;19942;-82
2023/07/12 07:51:43;;;;;;;;;;;22.00;87.90;;;;;;6190651;23;19916;-82
2023/07/12 07:54:08;;;;;;;;;;;22.00;87.90;;;;;;6216639;23;19950;-82
2023/07/12 07:56:34;;;;;;;;;;;22.00;87.80;;;;;;6216781;23;19934;-82
2023/07/12 07:58:59;;;;;;;;;;;22.10;87.90;;;;;;6190105;23;19911;-82
2023/07/12 08:01:24;;;;;;;;;;;22.10;87.80;;;;;;6189971;23;19907;-81
2023/07/12 08:03:50;;;;;;;;;;;22.10;87.80;;;;;;6189586;23;19900;-82
2023/07/12 08:06:15;;;;;;;;;;;22.10;87.80;;;;;;6189913;23;19932;-83
2023/07/12 08:08:41;;;;;;;;;;;22.10;87.80;;;;;;6190275;23;19966;-82
2023/07/12 08:11:07;;;;;;;;;;;22.10;87.80;;;;;;6190036;23;20246;-82
2023/07/12 08:13:32;;;;;;;;;;;22.10;87.80;;;;;;6189507;23;20311;-82
2023/07/12 08:15:58;;;;;;;;;;;22.10;87.80;;;;;;6189893;23;19900;-82
2023/07/12 08:18:23;;;;;;;;;;;22.10;87.70;;;;;;6189520;23;19907;-82
2023/07/12 08:20:51;;;;;;;;;;;22.10;88.20;;;;;;6216078;23;19900;-82
2023/07/12 08:23:17;;;;;;;;;;;22.10;87.60;;;;;;6189696;23;19942;-82
2023/07/12 08:25:42;;;;;;;;;;;22.10;87.70;;;;;;6216596;23;19900;-82
2023/07/12 08:28:07;;;;;;;;;;;22.10;87.80;;;;;;6216265;23;19900;-82
2023/07/12 08:30:34;;;;;;;;;;;22.00;87.80;;;;;;6189295;23;19900;-82
2023/07/12 08:33:00;;;;;;;;;;;22.10;88.00;;;;;;6189088;23;19983;-82
2023/07/12 08:35:26;;;;;;;;;;;22.00;88.00;;;;;;6189234;23;19923;-82
2023/07/12 08:37:51;;;;;;;;;;;22.00;88.00;;;;;;6189331;23;19995;-82
2023/07/12 08:40:17;;;;;;;;;;;22.00;87.90;;;;;;6189151;23;19900;-82
2023/07/12 08:42:43;;;;;;;;;;;22.00;88.00;;;;;;6215222;23;19900;-81
2023/07/12 08:45:29;;;;;;;;;;;22.00;87.90;;;;;;6189268;23;19900;-82
2023/07/12 08:48:02;;;;;;;;;;;22.00;87.90;;;;;;6188137;23;20238;-82
2023/07/12 08:50:31;;;;;;;;;;;22.10;87.90;;;;;;6189137;23;19906;-81
2023/07/12 08:52:57;;;;;;;;;;;22.10;87.90;;;;;;6215697;23;20270;-81
2023/07/12 08:55:24;;;;;;;;;;;22.10;87.80;;;;;;6189204;23;19983;-82
2023/07/12 08:57:53;;;;;;;;;;;22.10;87.80;;;;;;6187606;23;19974;-82
2023/07/12 09:00:19;;;;;;;;;;;22.10;87.80;;;;;;6215880;23;20311;-82
2023/07/12 09:02:45;;;;;;;;;;;22.10;87.80;;;;;;6188888;23;20037;-82
2023/07/12 09:05:12;;;;;;;;;;;22.10;87.80;;;;;;6189859;23;19900;-82
2023/07/12 09:07:41;;;;;;;;;;;22.10;87.70;;;;;;6217132;23;19983;-81
2023/07/12 09:10:08;;;;;;;;;;;22.10;87.80;;;;;;6190726;23;19900;-83
2023/07/12 09:12:35;;;;;;;;;;;22.20;87.70;;;;;;6222979;23;19954;-82
2023/07/12 09:15:02;;;;;;;;;;;22.20;87.60;;;;;;6223519;23;19904;-83
2023/07/12 09:17:30;;;;;;;;;;;22.20;87.50;;;;;;6196642;23;19907;-83
2023/07/12 09:19:56;;;;;;;;;;;22.20;87.40;;;;;;6223463;23;19923;-83
2023/07/12 09:22:22;;;;;;;;;;;22.20;87.30;;;;;;6195500;23;19904;-83
2023/07/12 09:24:52;;;;;;;;;;;22.20;87.10;;;;;;6196619;23;19907;-82
2023/07/12 09:27:20;;;;;;;;;;;22.30;87.10;;;;;;6195678;23;20035;-82
2023/07/12 09:29:45;;;;;;;;;;;22.30;87.00;;;;;;6195553;23;19900;-83
2023/07/12 09:32:27;;;;;;;;;;;22.30;86.80;;;;;;6196049;23;19907;-83
2023/07/12 09:34:54;;;;;;;;;;;22.40;86.80;;;;;;6224168;23;19899;-83
2023/07/12 09:37:22;;;;;;;;;;;22.40;86.60;;;;;;6196597;23;19991;-83
2023/07/12 09:39:55;;;;;;;;;;;22.40;86.50;;;;;;6196611;23;19903;-83
2023/07/12 09:42:21;;;;;;;;;;;22.50;86.40;;;;;;6195545;23;19903;-82
2023/07/12 09:44:47;;;;;;;;;;;22.50;86.40;;;;;;6195990;23;19907;-83
2023/07/12 09:47:31;;;;;;;;;;;22.40;86.40;;;;;;6222963;23;19926;-82
2023/07/12 09:50:10;;;;;;;;;;;22.40;86.50;;;;;;6195435;23;19904;-83
2023/07/12 09:52:59;;;;;;;;;;;22.40;86.70;;;;;;6195374;23;19954;-82
2023/07/12 09:55:35;;;;;;;;;;;22.40;86.80;;;;;;6127491;23;20238;-82
2023/07/12 09:58:06;;;;;;;;;;;22.30;86.90;;;;;;6194702;23;20341;-82
2023/07/12 10:00:37;;;;;;;;;;;22.30;87.00;;;;;;6220988;23;20035;-82
2023/07/12 10:03:10;;;;;;;;;;;22.30;87.10;;;;;;6220820;23;19931;-82
2023/07/12 10:05:36;;;;;;;;;;;22.30;87.20;;;;;;6193918;23;19899;-82
2023/07/12 10:08:10;;;;;;;;;;;22.30;87.30;;;;;;6221410;23;20358;-82
2023/07/12 10:10:39;;;;;;;;;;;22.30;87.40;;;;;;6193819;23;19900;-82
2023/07/12 10:13:23;;;;;;;;;;;22.30;87.30;;;;;;6192743;23;19900;-82
2023/07/12 10:15:49;;;;;;;;;;;22.30;87.10;;;;;;6193205;23;19899;-82
2023/07/12 10:18:19;;;;;;;;;;;22.30;87.10;;;;;;6192454;23;20376;-82
2023/07/12 10:20:45;;;;;;;;;;;22.30;87.00;;;;;;6193182;23;19900;-83
2023/07/12 10:23:12;;;;;;;;;;;22.40;86.90;;;;;;6192006;23;19900;-82
2023/07/12 10:25:44;;;;;;;;;;;22.40;86.80;;;;;;6219437;23;19900;-82
2023/07/12 10:28:13;;;;;;;;;;;22.40;86.80;;;;;;6219294;23;19899;-82
2023/07/12 10:30:39;;;;;;;;;;;22.40;86.80;;;;;;6192411;23;19904;-82
2023/07/12 10:33:15;;;;;;;;;;;22.40;86.80;;;;;;6191810;23;20430;-81
2023/07/12 10:35:48;;;;;;;;;;;22.40;86.80;;;;;;6218784;23;20333;-82
2023/07/12 10:38:15;;;;;;;;;;;22.40;86.70;;;;;;6191833;23;19962;-82
2023/07/12 10:40:47;;;;;;;;;;;22.50;87.10;;;;;;6192137;23;20329;-82
2023/07/12 10:43:15;;;;;;;;;;;22.50;86.50;;;;;;6190937;23;19935;-82
2023/07/12 10:45:40;;;;;;;;;;;22.50;86.50;;;;;;6191678;23;19954;-82
2023/07/12 10:48:07;;;;;;;;;;;22.50;86.30;;;;;;6191701;23;20281;-82
2023/07/12 10:50:34;;;;;;;;;;;22.50;86.20;;;;;;6191099;23;19904;-82
2023/07/12 10:53:03;;;;;;;;;;;22.60;86.00;;;;;;6190962;23;19900;-82
2023/07/12 10:55:35;;;;;;;;;;;22.60;85.90;;;;;;6191621;23;19923;-82
2023/07/12 10:58:21;;;;;;;;;;;22.60;85.70;;;;;;6191314;23;20305;-82
2023/07/12 11:00:48;;;;;;;;;;;22.70;85.70;;;;;;6191509;23;19942;-82
2023/07/12 11:03:16;;;;;;;;;;;22.70;85.60;;;;;;6218105;23;20315;-82
2023/07/12 11:05:47;;;;;;;;;;;22.70;85.50;;;;;;6191005;23;19911;-82
2023/07/12 11:08:31;;;;;;;;;;;22.70;85.50;;;;;;6190729;23;20334;-82
2023/07/12 11:11:08;;;;;;;;;;;22.70;85.40;;;;;;6217257;23;19944;-82
2023/07/12 11:13:35;;;;;;;;;;;22.70;85.30;;;;;;6190318;23;19900;-82
2023/07/12 11:16:05;;;;;;;;;;;22.80;85.40;;;;;;6217363;23;19900;-82
2023/07/12 11:18:35;;;;;;;;;;;22.70;85.30;;;;;;6216900;23;19983;-82
2023/07/12 11:21:03;;;;;;;;;;;22.70;85.40;;;;;;6190949;23;19907;-82
2023/07/12 11:23:32;;;;;;;;;;;22.70;85.50;;;;;;6190601;23;19900;-82
2023/07/12 11:26:02;;;;;;;;;;;22.70;85.70;;;;;;6189956;23;19986;-82
2023/07/12 11:28:43;;;;;;;;;;;22.70;85.70;;;;;;6190099;23;19900;-82
2023/07/12 11:31:11;;;;;;;;;;;22.70;85.70;;;;;;6216733;23;20319;-82
2023/07/12 11:33:37;;;;;;;;;;;22.60;85.80;;;;;;6189195;23;19914;-82
2023/07/12 11:36:13;;;;;;;;;;;22.60;85.90;;;;;;6189590;23;19931;-82
2023/07/12 11:38:41;;;;;;;;;;;22.60;86.00;;;;;;6189950;23;19904;-81
2023/07/12 11:41:15;;;;;;;;;;;22.60;86.00;;;;;;6189783;23;20334;-82
2023/07/12 11:43:41;;;;;;;;;;;22.60;86.10;;;;;;6189030;23;20390;-82
2023/07/12 11:46:11;;;;;;;;;;;22.60;86.20;;;;;;6189701;23;19900;-82
2023/07/12 11:48:37;;;;;;;;;;;22.60;86.20;;;;;;6216306;23;19899;-81
2023/07/12 11:51:05;;;;;;;;;;;22.50;86.20;;;;;;6216529;23;19900;-82
2023/07/12 11:53:30;;;;;;;;;;;22.50;86.30;;;;;;6189122;23;19978;-82
2023/07/12 11:55:56;;;;;;;;;;;22.50;86.30;;;;;;6189543;23;19935;-81
2023/07/12 11:58:22;;;;;;;;;;;22.50;86.20;;;;;;6216208;23;19911;-81
2023/07/12 12:00:49;;;;;;;;;;;22.50;86.20;;;;;;6216053;23;19958;-81
2023/07/12 12:03:15;;;;;;;;;;;22.50;86.20;;;;;;6188839;23;19907;-82
2023/07/12 12:05:41;;;;;;;;;;;22.60;86.30;;;;;;6189327;23;19926;-82
2023/07/12 12:08:07;;;;;;;;;;;22.50;86.20;;;;;;6189316;23;19900;-81
2023/07/12 12:10:35;;;;;;;;;;;22.50;86.20;;;;;;6189135;23;19938;-82
2023/07/12 12:13:01;;;;;;;;;;;22.60;86.80;;;;;;6215443;23;19907;-82
2023/07/12 12:15:30;;;;;;;;;;;22.50;86.30;;;;;;6216013;23;20235;-82
2023/07/12 12:17:56;;;;;;;;;;;22.60;86.30;;;;;;6189098;23;19911;-82
2023/07/12 12:20:26;;;;;;;;;;;22.60;86.30;;;;;;6215772;23;20366;-82
2023/07/12 12:23:04;;;;;;;;;;;22.60;86.20;;;;;;6215365;23;20211;-82
2023/07/12 12:25:30;;;;;;;;;;;22.60;86.10;;;;;;6221436;23;19935;-83
2023/07/12 12:27:56;;;;;;;;;;;22.60;86.00;;;;;;6195922;23;19907;-83
2023/07/12 12:30:23;;;;;;;;;;;22.60;85.90;;;;;;6195171;23;19904;-83
2023/07/12 12:33:02;;;;;;;;;;;22.60;85.80;;;;;;6194867;23;19947;-83
2023/07/12 12:35:28;;;;;;;;;;;22.60;85.80;;;;;;6221343;23;19899;-83
2023/07/12 12:37:55;;;;;;;;;;;22.60;85.80;;;;;;6194241;23;20254;-82
2023/07/12 12:40:21;;;;;;;;;;;22.60;85.80;;;;;;6195232;23;20270;-82
2023/07/12 12:42:58;;;;;;;;;;;22.50;85.70;;;;;;6221952;23;20022;-82
2023/07/12 12:45:25;;;;;;;;;;;22.60;85.70;;;;;;6224049;23;19907;-83
2023/07/12 12:47:51;;;;;;;;;;;22.60;85.70;;;;;;6197116;23;19904;-83
2023/07/12 12:50:18;;;;;;;;;;;22.60;85.70;;;;;;6196844;23;19931;-83
2023/07/12 12:52:44;;;;;;;;;;;22.60;85.80;;;;;;6196153;23;19919;-83
2023/07/12 12:55:10;;;;;;;;;;;22.60;85.90;;;;;;6196253;23;19906;-83
2023/07/12 12:57:36;;;;;;;;;;;22.50;85.90;;;;;;6223637;23;19900;-82
2023/07/12 13:00:04;;;;;;;;;;;22.50;86.00;;;;;;6196361;23;19903;-82
2023/07/12 13:02:30;;;;;;;;;;;22.50;86.10;;;;;;6195645;23;20242;-83
2023/07/12 13:04:55;;;;;;;;;;;22.50;86.10;;;;;;6222576;23;19900;-82
2023/07/12 13:07:23;;;;;;;;;;;22.50;86.20;;;;;;6195799;23;19904;-81
2023/07/12 13:09:49;;;;;;;;;;;22.50;86.30;;;;;;6222042;23;19907;-82
2023/07/12 13:12:16;;;;;;;;;;;22.50;86.30;;;;;;6194576;23;19900;-82
2023/07/12 13:14:42;;;;;;;;;;;22.50;86.30;;;;;;6194500;23;19962;-82
2023/07/12 13:17:13;;;;;;;;;;;22.50;86.30;;;;;;6194651;23;20322;-82
2023/07/12 13:19:38;;;;;;;;;;;22.50;86.40;;;;;;6194021;23;19943;-82
2023/07/12 13:22:04;;;;;;;;;;;22.50;86.40;;;;;;6194404;23;19969;-82
2023/07/12 13:24:29;;;;;;;;;;;22.40;86.30;;;;;;6193978;23;19904;-83
2023/07/12 13:26:54;;;;;;;;;;;22.50;86.90;;;;;;6193530;23;19900;-81
2023/07/12 13:29:20;;;;;;;;;;;22.50;86.40;;;;;;6220872;23;19908;-82
2023/07/12 13:31:45;;;;;;;;;;;22.50;86.40;;;;;;6193870;23;19942;-82
2023/07/12 13:34:11;;;;;;;;;;;22.40;86.40;;;;;;6220809;23;20002;-81
2023/07/12 13:36:36;;;;;;;;;;;22.40;86.40;;;;;;6193898;23;19899;-81
2023/07/12 13:39:08;;;;;;;;;;;22.40;86.40;;;;;;6193280;23;19911;-81
2023/07/12 13:41:33;;;;;;;;;;;22.40;86.40;;;;;;6192985;23;20395;-82
2023/07/12 13:43:59;;;;;;;;;;;22.40;86.40;;;;;;6219763;23;19931;-81
2023/07/12 13:46:24;;;;;;;;;;;22.40;86.40;;;;;;6192494;23;19989;-82
2023/07/12 13:48:50;;;;;;;;;;;22.40;86.40;;;;;;6219587;23;19954;-80
2023/07/12 13:51:20;;;;;;;;;;;22.40;86.30;;;;;;6218737;23;19900;-80
2023/07/12 13:53:46;;;;;;;;;;;22.40;85.60;;;;;;6220273;23;19900;-84
2023/07/12 13:56:12;;;;;;;;;;;22.40;85.30;;;;;;6192826;23;20441;-82
2023/07/12 13:58:38;;;;;;;;;;;22.40;84.70;;;;;;6191949;23;19935;-81
2023/07/12 14:01:03;;;;;;;;;;;22.40;84.80;;;;;;6191890;23;20338;-82
2023/07/12 14:03:29;;;;;;;;;;;22.40;84.30;;;;;;6191750;23;19924;-80
2023/07/12 14:05:54;;;;;;;;;;;22.50;84.30;;;;;;6190357;23;19900;-82
2023/07/12 14:08:20;;;;;;;;;;;22.50;84.20;;;;;;6191471;23;19904;-81
2023/07/12 14:10:46;;;;;;;;;;;22.50;84.20;;;;;;6218652;23;20312;-81
2023/07/12 14:13:21;;;;;;;;;;;22.50;84.30;;;;;;6191422;23;19906;-82
2023/07/12 14:15:47;;;;;;;;;;;22.50;84.20;;;;;;6219759;23;19900;-84
2023/07/12 14:18:12;;;;;;;;;;;22.50;84.30;;;;;;6191802;23;19923;-82